Time;durP1;ratioP1;P1;durP2;ratioP2;P2;SDS_P1;SDS_P2;PMS_P1;PMS_P2;Temp;Humidity;BMP_temperature;BMP_pressure;BME280_temperature;BME280_humidity;BME280_pressure;Samples;Min_cycle;Max_cycle;Signal;HPM_P1;HPM_P2
2021/10/05 00:01:01;;;;;;;30.60;21.80;;;;;;;12.58;79.42;98835.16;235735;1199;24062;-72
2021/10/05 00:06:04;;;;;;;31.60;22.30;;;;;;;12.58;79.66;98831.11;235757;1197;25279;-72
2021/10/05 00:11:07;;;;;;;32.80;21.90;;;;;;;12.56;79.54;98833.42;235760;1184;24053;-72
2021/10/05 00:16:17;;;;;;;35.50;22.20;;;;;;;12.45;79.61;98835.30;235557;1193;24215;-71
2021/10/05 00:21:28;;;;;;;33.30;21.30;;;;;;;12.32;79.58;98831.89;235681;1199;23975;-71
2021/10/05 00:26:33;;;;;;;33.00;21.00;;;;;;;12.22;79.59;98824.95;235656;1198;24079;-71
2021/10/05 00:31:39;;;;;;;31.90;19.80;;;;;;;12.16;79.89;98813.11;236056;1199;22451;-71
2021/10/05 00:36:43;;;;;;;32.10;21.00;;;;;;;12.14;80.12;98805.80;236022;1197;22463;-70
2021/10/05 00:41:46;;;;;;;36.10;24.70;;;;;;;12.15;80.35;98797.41;235449;1199;24050;-74
2021/10/05 00:46:48;;;;;;;31.80;21.60;;;;;;;12.15;80.80;98799.66;235504;1200;22527;-71
2021/10/05 00:51:51;;;;;;;31.20;22.10;;;;;;;12.16;80.81;98795.88;235354;1200;24068;-73
2021/10/05 00:56:54;;;;;;;39.70;23.90;;;;;;;12.19;80.87;98791.86;235657;1199;24192;-72
2021/10/05 01:01:56;;;;;;;40.30;27.40;;;;;;;12.19;81.27;98785.95;235958;1199;22429;-71
2021/10/05 01:07:05;;;;;;;37.50;24.60;;;;;;;12.19;81.34;98781.88;235338;1193;24168;-73
2021/10/05 01:12:08;;;;;;;37.60;25.50;;;;;;;12.18;81.54;98783.17;236147;1192;22466;-73
2021/10/05 01:17:15;;;;;;;36.30;25.10;;;;;;;12.20;81.76;98772.06;235579;1193;24110;-71
2021/10/05 01:22:17;;;;;;;42.20;29.40;;;;;;;12.21;81.87;98764.84;235167;1200;22465;-72
2021/10/05 01:27:19;;;;;;;36.20;25.90;;;;;;;12.21;81.95;98767.75;235361;1200;24055;-71
2021/10/05 01:32:22;;;;;;;38.50;25.90;;;;;;;12.23;82.20;98774.44;235322;1200;25368;-73
2021/10/05 01:37:24;;;;;;;34.10;23.80;;;;;;;12.25;82.31;98768.36;235383;1200;24113;-74
2021/10/05 01:42:27;;;;;;;36.50;26.00;;;;;;;12.29;82.58;98756.30;235167;1193;25210;-74
2021/10/05 01:47:30;;;;;;;35.50;26.20;;;;;;;12.40;82.65;98746.80;235434;1200;22910;-74
2021/10/05 01:52:32;;;;;;;33.10;24.00;;;;;;;12.50;82.71;98745.20;235392;1199;24098;-73
2021/10/05 01:57:34;;;;;;;32.70;22.90;;;;;;;12.57;82.59;98741.34;235252;1200;22435;-73
2021/10/05 02:02:38;;;;;;;31.60;21.90;;;;;;;12.59;82.40;98739.04;235425;1200;24066;-73
2021/10/05 02:07:41;;;;;;;34.40;23.90;;;;;;;12.57;82.18;98736.65;235615;1199;24034;-74
2021/10/05 02:12:44;;;;;;;35.60;26.90;;;;;;;12.54;82.31;98731.93;235986;1199;24110;-71
2021/10/05 02:17:48;;;;;;;35.90;23.10;;;;;;;12.49;82.30;98728.52;235531;1199;22436;-73
2021/10/05 02:22:51;;;;;;;33.60;23.00;;;;;;;12.42;82.32;98725.75;235893;1184;22598;-71
2021/10/05 02:28:08;;;;;;;33.40;22.00;;;;;;;12.38;82.37;98722.17;235456;1193;24090;-73
2021/10/05 02:33:22;;;;;;;34.90;24.80;;;;;;;12.30;82.30;98713.36;235331;1185;24055;-72
2021/10/05 02:38:24;;;;;;;35.10;23.00;;;;;;;12.22;82.35;98708.70;235305;1200;25105;-74
2021/10/05 02:43:26;;;;;;;35.00;22.20;;;;;;;12.18;82.49;98705.77;235807;1193;22473;-72
2021/10/05 02:48:29;;;;;;;30.30;20.40;;;;;;;12.17;82.57;98708.59;235619;1193;22578;-73
2021/10/05 02:53:31;;;;;;;37.00;24.30;;;;;;;12.13;82.47;98708.94;235568;1199;22433;-71
2021/10/05 02:58:33;;;;;;;32.80;23.80;;;;;;;12.07;82.49;98708.30;235272;1185;24081;-72
2021/10/05 03:03:36;;;;;;;29.60;21.00;;;;;;;12.03;82.96;98701.15;235639;1199;25194;-73
2021/10/05 03:08:41;;;;;;;29.30;20.80;;;;;;;11.99;82.73;98698.11;235375;1200;24048;-73
2021/10/05 03:13:44;;;;;;;34.00;20.80;;;;;;;11.97;82.84;98683.81;235182;1200;23798;-71
2021/10/05 03:18:48;;;;;;;28.80;19.60;;;;;;;11.97;83.12;98675.69;235487;1193;24158;-73
2021/10/05 03:23:51;;;;;;;29.50;21.80;;;;;;;12.00;83.41;98671.56;235243;1200;24050;-73
2021/10/05 03:28:54;;;;;;;29.20;19.60;;;;;;;12.02;83.49;98673.50;235483;1199;24095;-72
2021/10/05 03:33:57;;;;;;;27.50;19.30;;;;;;;12.04;83.43;98672.86;235692;1199;22515;-73
2021/10/05 03:38:59;;;;;;;26.40;18.90;;;;;;;12.05;83.48;98669.73;235560;1199;25011;-73
2021/10/05 03:44:02;;;;;;;26.90;21.20;;;;;;;12.05;83.42;98671.67;235343;1199;24064;-71
2021/10/05 03:49:05;;;;;;;27.80;20.90;;;;;;;12.02;83.39;98665.23;235486;1193;24043;-71
2021/10/05 03:54:08;;;;;;;26.90;20.70;;;;;;;11.97;83.39;98657.65;235769;1199;25242;-73
2021/10/05 03:59:15;;;;;;;26.60;18.90;;;;;;;11.94;83.31;98651.11;235329;1200;23076;-72
2021/10/05 04:04:17;;;;;;;27.60;18.20;;;;;;;11.92;83.46;98649.46;235280;1193;25237;-73
2021/10/05 04:09:21;;;;;;;27.50;18.10;;;;;;;11.94;83.64;98650.73;235178;1177;24033;-74
2021/10/05 04:14:37;;;;;;;27.20;20.10;;;;;;;11.97;83.65;98641.77;235180;1193;25324;-72
2021/10/05 04:19:44;;;;;;;27.00;18.30;;;;;;;11.99;83.79;98648.02;235055;1193;25312;-71
2021/10/05 04:24:55;;;;;;;25.90;17.50;;;;;;;11.97;83.62;98645.02;234948;1196;22595;-72
2021/10/05 04:30:13;;;;;;;24.80;18.40;;;;;;;11.96;83.50;98652.09;235479;1200;25019;-73
2021/10/05 04:35:17;;;;;;;26.60;17.80;;;;;;;11.90;83.46;98649.23;235671;1200;22637;-71
2021/10/05 04:40:19;;;;;;;21.20;16.50;;;;;;;11.84;83.28;98644.52;235704;1199;22459;-73
2021/10/05 04:45:22;;;;;;;23.00;17.90;;;;;;;11.80;83.41;98644.33;235653;1199;22438;-71
2021/10/05 04:50:31;;;;;;;25.30;17.80;;;;;;;11.79;83.60;98642.91;235549;1199;24390;-73
2021/10/05 04:55:54;;;;;;;24.30;15.50;;;;;;;11.80;83.72;98641.70;235720;1193;24053;-72
2021/10/05 05:01:02;;;;;;;22.80;15.60;;;;;;;11.77;83.52;98638.15;236182;1199;24020;-71
2021/10/05 05:06:06;;;;;;;21.60;16.20;;;;;;;11.75;83.42;98634.98;235984;1193;24093;-74
2021/10/05 05:11:09;;;;;;;21.30;14.60;;;;;;;11.77;83.67;98624.92;236199;1198;22774;-73
2021/10/05 05:16:13;;;;;;;20.70;14.60;;;;;;;11.80;84.03;98620.02;236159;1198;22580;-73
2021/10/05 05:21:16;;;;;;;20.10;15.10;;;;;;;11.90;84.23;98626.20;235567;1199;24061;-73
2021/10/05 05:26:32;;;;;;;22.50;16.40;;;;;;;12.02;84.29;98619.11;235306;1193;24206;-74
2021/10/05 05:31:41;;;;;;;24.60;17.80;;;;;;;12.16;84.29;98615.54;235528;1200;22455;-71
2021/10/05 05:36:43;;;;;;;23.70;17.70;;;;;;;12.29;84.31;98615.79;235612;1200;24234;-73
2021/10/05 05:41:46;;;;;;;21.40;16.20;;;;;;;12.39;84.30;98624.48;235670;1199;24049;-75
2021/10/05 05:46:48;;;;;;;21.20;15.70;;;;;;;12.50;84.22;98615.85;236220;1198;24105;-73
2021/10/05 05:51:51;;;;;;;21.00;13.70;;;;;;;12.64;84.42;98614.50;236123;1199;22451;-71
2021/10/05 05:56:54;;;;;;;19.40;15.50;;;;;;;12.80;84.32;98610.34;236364;1199;22710;-74
2021/10/05 06:02:02;;;;;;;19.40;14.70;;;;;;;12.98;84.26;98612.46;235921;1199;22881;-72
2021/10/05 06:07:18;;;;;;;20.30;13.30;;;;;;;13.15;84.14;98611.23;236789;1199;22801;-71
2021/10/05 06:12:38;;;;;;;18.00;12.40;;;;;;;13.34;83.89;98614.14;237562;1193;23978;-71
2021/10/05 06:17:44;;;;;;;20.20;15.20;;;;;;;13.56;83.88;98619.05;236928;1199;22487;-71
2021/10/05 06:22:48;;;;;;;19.60;13.00;;;;;;;13.73;83.53;98613.59;236211;1185;24148;-72
2021/10/05 06:27:52;;;;;;;17.60;11.90;;;;;;;13.93;83.53;98615.08;236110;1193;22462;-69
2021/10/05 06:32:55;;;;;;;19.20;13.90;;;;;;;14.16;83.38;98608.40;236564;1192;22568;-70
2021/10/05 06:38:03;;;;;;;18.50;13.00;;;;;;;14.37;83.13;98598.55;236419;1200;22570;-72
2021/10/05 06:43:39;;;;;;;16.70;12.30;;;;;;;14.60;82.82;98605.42;236129;1193;22533;-71
2021/10/05 06:48:48;;;;;;;19.10;13.60;;;;;;;14.84;82.66;98601.09;235924;1199;24632;-72
2021/10/05 06:53:51;;;;;;;15.70;12.20;;;;;;;15.06;82.31;98595.45;236072;1194;25284;-71
2021/10/05 06:58:57;;;;;;;14.50;11.90;;;;;;;15.31;81.91;98594.60;236125;1199;22445;-71
2021/10/05 07:03:59;;;;;;;18.20;12.50;;;;;;;15.57;81.66;98591.90;235948;1199;24063;-71
2021/10/05 07:09:09;;;;;;;12.70;9.70;;;;;;;15.84;81.35;98589.05;235788;1193;26124;-73
2021/10/05 07:14:11;;;;;;;11.80;10.50;;;;;;;16.32;81.44;98583.55;236065;1193;24017;-74
2021/10/05 07:19:27;;;;;;;14.30;11.50;;;;;;;16.76;80.08;98573.60;236122;1193;22482;-72
2021/10/05 07:24:30;;;;;;;11.70;9.40;;;;;;;16.97;79.45;98572.90;236594;1193;24007;-73
2021/10/05 07:29:33;;;;;;;10.90;8.80;;;;;;;17.17;78.92;98570.70;236603;1193;22451;-74
2021/10/05 07:34:52;;;;;;;11.40;9.00;;;;;;;17.43;78.68;98566.29;236536;1195;22544;-74
2021/10/05 07:39:54;;;;;;;9.30;6.60;;;;;;;17.73;78.15;98567.41;236528;1192;22610;-72
2021/10/05 07:44:58;;;;;;;9.10;7.10;;;;;;;18.02;76.81;98567.35;236383;1193;22459;-73
2021/10/05 07:50:16;;;;;;;10.50;6.30;;;;;;;18.31;75.59;98565.10;236315;1193;24135;-72
2021/10/05 07:55:18;;;;;;;7.80;6.70;;;;;;;18.60;75.20;98563.09;236644;1199;24046;-72
2021/10/05 08:00:22;;;;;;;7.60;6.10;;;;;;;18.85;74.55;98555.47;236616;1192;22562;-73
2021/10/05 08:05:35;;;;;;;7.70;5.70;;;;;;;19.10;73.61;98553.83;236795;1194;24116;-73
2021/10/05 08:11:08;;;;;;;7.70;6.60;;;;;;;19.36;72.40;98543.99;236305;1200;22539;-72
2021/10/05 08:16:46;;;;;;;8.10;6.60;;;;;;;19.58;71.47;98543.61;236817;1193;22439;-73
2021/10/05 08:22:10;;;;;;;9.90;5.90;;;;;;;19.78;70.73;98526.73;236428;1195;22513;-73
2021/10/05 08:27:13;;;;;;;8.40;6.60;;;;;;;19.92;69.96;98513.34;236963;1193;22476;-73
2021/10/05 08:32:29;;;;;;;8.20;6.20;;;;;;;20.11;69.02;98503.37;236682;1192;23993;-73
2021/10/05 08:37:52;;;;;;;8.50;6.60;;;;;;;20.31;68.71;98502.34;236305;1195;24179;-73
2021/10/05 08:42:59;;;;;;;10.30;7.20;;;;;;;20.50;67.85;98502.92;237903;1193;22454;-73
2021/10/05 08:48:02;;;;;;;9.60;7.10;;;;;;;20.67;67.43;98503.70;236350;1188;24060;-73
2021/10/05 08:53:04;;;;;;;8.40;7.50;;;;;;;20.80;66.67;98502.02;236338;1199;25375;-73
2021/10/05 08:58:07;;;;;;;8.50;6.30;;;;;;;20.89;66.09;98496.63;236022;1195;22473;-73
2021/10/05 09:03:09;;;;;;;10.20;8.30;;;;;;;20.97;65.38;98488.36;236290;1193;24177;-73
2021/10/05 09:08:24;;;;;;;9.40;7.20;;;;;;;21.11;65.13;98493.23;236434;1192;25228;-72
2021/10/05 09:13:34;;;;;;;10.10;7.50;;;;;;;21.23;64.93;98492.40;236833;1199;22489;-72
2021/10/05 09:18:38;;;;;;;9.10;7.50;;;;;;;21.33;64.46;98487.49;236230;1194;22644;-74
2021/10/05 09:23:55;;;;;;;11.20;7.30;;;;;;;21.43;63.82;98491.77;236344;1193;25204;-74
2021/10/05 09:29:08;;;;;;;8.70;7.10;;;;;;;21.52;63.42;98488.16;235928;1197;26192;-73
2021/10/05 09:34:10;;;;;;;8.10;6.70;;;;;;;21.61;63.25;98479.02;236267;1199;23990;-73
2021/10/05 09:39:13;;;;;;;9.30;7.20;;;;;;;21.70;62.81;98472.69;236180;1199;22454;-71
2021/10/05 09:44:25;;;;;;;8.50;6.80;;;;;;;21.83;61.79;98474.94;236370;1194;23164;-71
2021/10/05 09:49:27;;;;;;;11.40;6.50;;;;;;;21.93;61.66;98481.05;236397;1200;22441;-72
2021/10/05 09:54:30;;;;;;;11.10;8.60;;;;;;;22.04;61.49;98481.51;236968;1194;24976;-72
2021/10/05 09:59:34;;;;;;;7.50;6.80;;;;;;;22.22;61.86;98471.64;236738;1199;25043;-73
2021/10/05 10:04:36;;;;;;;7.70;7.00;;;;;;;22.38;61.57;98464.73;237160;1192;25081;-72
2021/10/05 10:09:38;;;;;;;10.40;7.40;;;;;;;22.51;60.71;98461.89;236656;1199;22480;-71
2021/10/05 10:14:41;;;;;;;8.60;6.90;;;;;;;22.65;60.16;98457.19;236404;1199;22466;-73
2021/10/05 10:19:47;;;;;;;7.30;6.60;;;;;;;22.81;59.19;98457.31;236522;1195;24146;-71
2021/10/05 10:24:52;;;;;;;14.10;6.30;;;;;;;22.99;57.89;98449.73;236035;1195;25202;-71
2021/10/05 10:29:54;;;;;;;9.80;6.40;;;;;;;23.15;55.31;98434.79;236227;1199;24621;-71
2021/10/05 10:35:07;;;;;;;8.90;5.70;;;;;;;23.30;54.92;98431.83;236433;1199;24122;-72
2021/10/05 10:40:36;;;;;;;7.60;6.00;;;;;;;23.46;53.80;98424.19;236184;1199;22450;-71
2021/10/05 10:45:49;;;;;;;10.70;6.10;;;;;;;23.60;52.49;98420.51;236209;1193;22449;-72
2021/10/05 10:50:58;;;;;;;9.60;6.00;;;;;;;23.73;52.17;98421.50;236064;1199;24082;-72
2021/10/05 10:56:01;;;;;;;11.00;5.80;;;;;;;23.84;51.67;98421.77;236257;1197;22731;-71
2021/10/05 11:01:04;;;;;;;7.80;5.60;;;;;;;23.94;50.82;98417.13;235817;1187;24064;-73
2021/10/05 11:06:17;;;;;;;8.70;6.00;;;;;;;24.04;50.49;98415.28;235839;1194;22548;-71
2021/10/05 11:11:40;;;;;;;8.70;5.10;;;;;;;24.15;49.82;98412.40;236066;1198;25215;-72
2021/10/05 11:17:07;;;;;;;7.00;5.30;;;;;;;24.20;48.71;98409.59;236044;1193;23983;-70
2021/10/05 11:22:13;;;;;;;7.10;5.20;;;;;;;24.23;48.22;98400.14;235976;1193;22626;-72
2021/10/05 11:27:19;;;;;;;10.20;5.60;;;;;;;24.29;47.54;98394.44;236270;1193;24069;-71
2021/10/05 11:32:21;;;;;;;7.00;5.30;;;;;;;24.34;47.26;98385.14;236299;1199;23073;-71
2021/10/05 11:37:25;;;;;;;6.80;5.40;;;;;;;24.43;47.27;98376.48;236102;1193;26502;-70
2021/10/05 11:42:27;;;;;;;7.50;5.30;;;;;;;24.50;47.17;98378.88;235956;1185;22484;-72
2021/10/05 11:47:31;;;;;;;6.70;4.80;;;;;;;24.58;46.56;98376.84;236268;1193;24060;-73
2021/10/05 11:52:39;;;;;;;7.40;5.00;;;;;;;24.61;45.67;98367.87;236164;1200;22458;-73
2021/10/05 11:57:44;;;;;;;7.00;4.90;;;;;;;24.66;45.83;98370.30;235804;1195;22719;-72
2021/10/05 12:02:47;;;;;;;6.60;4.90;;;;;;;24.77;45.87;98371.70;235787;1195;24047;-72
2021/10/05 12:07:49;;;;;;;5.70;5.10;;;;;;;24.85;45.81;98366.28;235930;1199;25214;-70
2021/10/05 12:12:52;;;;;;;6.20;4.80;;;;;;;24.92;45.28;98360.95;235891;1199;24135;-71
2021/10/05 12:18:07;;;;;;;6.60;4.60;;;;;;;24.94;44.78;98355.23;235669;1199;24119;-72
2021/10/05 12:23:30;;;;;;;6.10;4.60;;;;;;;24.99;44.53;98348.01;235847;1199;23986;-71
2021/10/05 12:28:32;;;;;;;6.00;4.90;;;;;;;25.02;43.99;98332.20;235965;1199;22953;-70
2021/10/05 12:33:35;;;;;;;7.40;4.40;;;;;;;25.00;43.19;98323.03;235948;1199;24041;-70
2021/10/05 12:38:37;;;;;;;7.10;4.70;;;;;;;24.98;42.91;98325.24;235826;1199;25304;-70
2021/10/05 12:43:42;;;;;;;4.70;4.20;;;;;;;24.96;42.76;98326.73;236021;1199;25217;-70
2021/10/05 12:48:48;;;;;;;8.00;4.00;;;;;;;24.94;42.04;98325.09;235958;1193;25170;-70
2021/10/05 12:53:56;;;;;;;5.90;4.20;;;;;;;24.92;42.34;98326.98;236323;1199;22924;-70
2021/10/05 12:58:58;;;;;;;6.40;4.20;;;;;;;24.91;41.79;98335.66;236030;1193;22491;-72
2021/10/05 13:04:03;;;;;;;5.80;4.30;;;;;;;24.85;41.18;98343.35;236207;1199;24193;-70
2021/10/05 13:09:09;;;;;;;4.30;3.90;;;;;;;24.79;40.96;98341.80;236238;1199;24046;-70
2021/10/05 13:14:18;;;;;;;5.70;3.60;;;;;;;24.76;41.17;98335.55;236240;1198;22800;-70
2021/10/05 13:19:20;;;;;;;5.70;4.10;;;;;;;24.72;41.45;98336.26;236724;1192;24184;-70
2021/10/05 13:24:23;;;;;;;4.50;3.80;;;;;;;24.68;40.93;98332.11;236856;1199;22441;-72
2021/10/05 13:29:26;;;;;;;4.60;3.90;;;;;;;24.61;40.60;98330.95;236164;1199;22430;-70
2021/10/05 13:34:28;;;;;;;5.20;4.60;;;;;;;24.57;40.51;98333.28;236182;1199;22420;-71
2021/10/05 13:39:31;;;;;;;5.50;3.50;;;;;;;24.54;40.60;98332.11;236475;1192;22450;-71
2021/10/05 13:44:34;;;;;;;6.50;3.60;;;;;;;24.53;40.73;98332.58;235910;1195;24045;-70
2021/10/05 13:49:36;;;;;;;4.40;3.60;;;;;;;24.49;40.51;98331.17;235715;1199;26135;-72
2021/10/05 13:54:39;;;;;;;5.10;3.80;;;;;;;24.42;40.93;98328.92;235499;1200;24069;-70
2021/10/05 13:59:42;;;;;;;4.50;3.90;;;;;;;24.32;40.86;98325.15;236527;1193;22454;-72
2021/10/05 14:04:46;;;;;;;5.20;4.00;;;;;;;24.20;40.90;98326.41;236389;1199;22531;-71
2021/10/05 14:09:48;;;;;;;6.80;4.10;;;;;;;24.12;41.14;98321.41;236561;1193;22590;-70
2021/10/05 14:14:51;;;;;;;5.10;4.00;;;;;;;24.04;40.91;98325.31;236083;1177;24040;-71
2021/10/05 14:19:54;;;;;;;9.50;4.20;;;;;;;23.96;41.12;98324.36;235901;1199;25228;-72
2021/10/05 14:24:56;;;;;;;9.80;5.60;;;;;;;23.84;41.00;98330.51;236125;1193;24153;-71
2021/10/05 14:29:59;;;;;;;4.60;4.10;;;;;;;23.69;40.84;98330.08;235844;1199;24046;-71
2021/10/05 14:35:02;;;;;;;6.50;4.00;;;;;;;23.53;40.88;98327.92;236085;1199;24060;-71
2021/10/05 14:40:08;;;;;;;4.70;3.70;;;;;;;23.41;41.00;98324.45;235665;1193;22491;-72
2021/10/05 14:45:11;;;;;;;6.00;4.00;;;;;;;23.28;41.13;98330.10;236029;1193;25328;-72
2021/10/05 14:50:13;;;;;;;3.80;3.50;;;;;;;23.19;41.31;98326.15;235815;1193;24205;-72
2021/10/05 14:55:16;;;;;;;4.90;3.40;;;;;;;23.05;41.48;98321.54;235953;1193;24054;-72
2021/10/05 15:00:19;;;;;;;4.10;3.70;;;;;;;22.90;41.68;98315.14;235483;1200;24104;-71
2021/10/05 15:05:22;;;;;;;5.20;3.40;;;;;;;22.79;41.80;98312.59;235773;1199;22433;-73
2021/10/05 15:10:25;;;;;;;4.90;3.80;;;;;;;22.65;41.93;98315.23;236273;1198;22472;-71
2021/10/05 15:15:28;;;;;;;4.20;3.80;;;;;;;22.51;41.84;98314.91;236358;1199;22707;-72
2021/10/05 15:20:31;;;;;;;5.70;3.50;;;;;;;22.36;41.97;98312.92;236358;1199;24053;-72
2021/10/05 15:25:34;;;;;;;5.00;3.40;;;;;;;22.18;42.04;98309.19;236266;1192;24148;-72
2021/10/05 15:30:38;;;;;;;4.10;3.50;;;;;;;22.00;41.86;98306.77;236134;1198;24101;-72
2021/10/05 15:35:41;;;;;;;5.60;3.50;;;;;;;21.82;41.96;98311.89;235445;1200;24034;-73
2021/10/05 15:40:47;;;;;;;4.50;3.40;;;;;;;21.66;41.92;98315.48;236273;1194;24114;-72
2021/10/05 15:45:50;;;;;;;5.00;3.60;;;;;;;21.52;41.94;98325.29;235769;1199;22496;-72
2021/10/05 15:51:12;;;;;;;3.60;3.10;;;;;;;21.37;42.10;98330.16;235490;1193;24168;-72
2021/10/05 15:56:14;;;;;;;5.20;3.50;;;;;;;21.21;42.16;98333.23;235549;1199;24045;-72
2021/10/05 16:01:30;;;;;;;3.60;3.10;;;;;;;21.03;42.25;98334.27;236116;1197;24206;-73
2021/10/05 16:06:33;;;;;;;5.90;3.50;;;;;;;20.86;42.46;98333.40;235975;1198;24039;-71
2021/10/05 16:11:42;;;;;;;5.40;3.20;;;;;;;20.70;42.45;98335.27;235429;1177;24084;-71
2021/10/05 16:16:47;;;;;;;4.70;3.20;;;;;;;20.55;42.72;98333.86;235258;1200;24075;-72
2021/10/05 16:21:49;;;;;;;5.00;3.90;;;;;;;20.42;42.91;98349.52;235727;1199;22480;-69
2021/10/05 16:26:52;;;;;;;3.90;3.40;;;;;;;20.26;43.34;98359.91;234726;1197;22435;-72
2021/10/05 16:31:54;;;;;;;5.70;4.40;;;;;;;20.08;43.54;98364.87;236062;1192;24154;-73
2021/10/05 16:36:58;;;;;;;3.70;3.30;;;;;;;19.91;43.92;98362.16;236046;1193;24069;-71
2021/10/05 16:42:00;;;;;;;4.30;3.60;;;;;;;19.83;44.33;98362.58;236381;1192;22510;-72
2021/10/05 16:47:04;;;;;;;5.50;4.00;;;;;;;19.78;44.39;98367.18;235247;1187;25193;-71
2021/10/05 16:52:07;;;;;;;5.50;3.90;;;;;;;19.67;44.55;98364.02;235344;1194;22433;-72
2021/10/05 16:57:09;;;;;;;5.80;4.10;;;;;;;19.57;44.63;98358.88;235772;1199;22975;-71
2021/10/05 17:02:12;;;;;;;5.80;4.60;;;;;;;19.48;44.87;98358.61;236002;1197;22431;-72
2021/10/05 17:07:16;;;;;;;5.10;3.60;;;;;;;19.41;44.83;98353.60;235558;1186;24039;-70
2021/10/05 17:12:19;;;;;;;5.20;3.90;;;;;;;19.37;44.99;98350.80;236087;1199;24167;-71
2021/10/05 17:17:22;;;;;;;4.60;3.60;;;;;;;19.31;44.99;98359.99;236070;1199;22440;-72
2021/10/05 17:22:25;;;;;;;6.40;4.20;;;;;;;19.21;45.12;98357.21;236015;1176;22556;-70
2021/10/05 17:27:28;;;;;;;4.90;4.10;;;;;;;19.15;45.36;98358.95;235406;1199;24084;-69
2021/10/05 17:32:31;;;;;;;5.30;4.00;;;;;;;19.11;45.27;98363.23;235792;1199;24065;-71
2021/10/05 17:37:36;;;;;;;6.10;3.90;;;;;;;19.09;45.43;98364.17;235562;1198;24506;-71
2021/10/05 17:42:39;;;;;;;5.30;4.50;;;;;;;19.09;45.49;98363.32;235912;1193;24187;-71
2021/10/05 17:47:47;;;;;;;6.50;3.70;;;;;;;19.06;45.50;98368.77;235453;1200;25179;-72
2021/10/05 17:52:52;;;;;;;5.20;4.40;;;;;;;19.01;45.59;98371.60;235514;1200;26294;-73
2021/10/05 17:57:56;;;;;;;4.80;4.20;;;;;;;18.92;45.73;98381.81;235387;1200;24052;-73
2021/10/05 18:02:58;;;;;;;5.80;3.70;;;;;;;18.84;45.98;98383.75;235456;1200;22570;-72
2021/10/05 18:08:02;;;;;;;6.20;3.90;;;;;;;18.80;46.06;98385.38;235406;1194;24081;-72
2021/10/05 18:13:04;;;;;;;5.20;3.70;;;;;;;18.74;46.04;98391.52;235125;1201;22481;-72
2021/10/05 18:18:08;;;;;;;5.80;3.90;;;;;;;18.68;46.21;98391.37;235528;1201;22514;-70
2021/10/05 18:23:11;;;;;;;9.00;5.20;;;;;;;18.62;46.41;98392.94;235437;1201;24136;-71
2021/10/05 18:28:28;;;;;;;6.60;4.60;;;;;;;18.59;46.51;98394.41;235726;1193;24069;-72
2021/10/05 18:33:44;;;;;;;9.40;5.80;;;;;;;18.50;46.67;98396.98;235798;1193;22463;-72
2021/10/05 18:38:48;;;;;;;8.10;5.50;;;;;;;18.38;46.84;98397.39;236130;1193;24049;-72
2021/10/05 18:43:52;;;;;;;9.90;7.00;;;;;;;18.24;47.11;98393.02;236106;1199;22728;-72
2021/10/05 18:48:54;;;;;;;12.20;7.70;;;;;;;18.07;47.44;98392.35;235521;1200;24063;-72
2021/10/05 18:53:57;;;;;;;10.60;7.60;;;;;;;17.92;47.68;98389.48;235316;1197;24113;-72
2021/10/05 18:59:01;;;;;;;8.10;5.00;;;;;;;17.80;47.86;98381.95;235881;1199;24585;-72
2021/10/05 19:04:04;;;;;;;6.10;4.60;;;;;;;17.80;47.83;98376.05;236372;1199;24037;-70
2021/10/05 19:09:08;;;;;;;8.90;5.70;;;;;;;17.89;47.76;98372.45;236704;1197;22453;-72
2021/10/05 19:14:12;;;;;;;11.20;6.80;;;;;;;17.89;48.14;98376.23;235880;1186;24181;-72
2021/10/05 19:19:15;;;;;;;11.70;8.00;;;;;;;17.74;48.46;98386.56;235483;1200;24047;-72
2021/10/05 19:24:20;;;;;;;12.20;7.00;;;;;;;17.57;48.86;98383.48;235688;1199;24732;-72
2021/10/05 19:29:24;;;;;;;10.50;7.30;;;;;;;17.42;49.31;98381.20;235670;1199;25291;-72
2021/10/05 19:34:28;;;;;;;10.90;7.00;;;;;;;17.30;49.61;98374.14;235551;1198;24060;-70
2021/10/05 19:39:31;;;;;;;9.20;5.20;;;;;;;17.22;49.59;98383.74;235385;1198;24278;-72
2021/10/05 19:44:34;;;;;;;8.60;4.50;;;;;;;17.29;49.40;98384.39;235449;1193;24183;-73
2021/10/05 19:49:36;;;;;;;7.00;4.20;;;;;;;17.40;49.23;98381.61;234903;1201;25401;-73
2021/10/05 19:54:39;;;;;;;9.50;5.20;;;;;;;17.51;49.03;98385.94;235190;1201;25605;-72
2021/10/05 19:59:42;;;;;;;10.10;5.20;;;;;;;17.59;49.11;98391.98;235954;1199;24051;-70
2021/10/05 20:04:45;;;;;;;8.20;6.20;;;;;;;17.62;49.16;98397.77;236137;1199;24110;-73
2021/10/05 20:09:47;;;;;;;7.00;5.70;;;;;;;17.55;49.18;98401.69;235290;1193;25178;-73
2021/10/05 20:14:50;;;;;;;8.80;5.40;;;;;;;17.47;49.32;98400.59;235204;1193;23096;-72
2021/10/05 20:19:53;;;;;;;8.20;5.90;;;;;;;17.39;49.32;98398.13;235467;1193;24047;-72
2021/10/05 20:24:59;;;;;;;9.50;6.00;;;;;;;17.32;49.43;98399.23;235834;1200;24037;-72
2021/10/05 20:30:04;;;;;;;7.50;5.50;;;;;;;17.28;49.51;98390.85;235836;1199;25394;-71
2021/10/05 20:35:07;;;;;;;8.20;5.60;;;;;;;17.21;49.64;98385.56;236049;1199;22446;-72
2021/10/05 20:40:11;;;;;;;9.70;6.50;;;;;;;17.17;49.88;98380.70;236033;1193;24071;-72
2021/10/05 20:45:13;;;;;;;9.30;6.20;;;;;;;17.11;50.28;98379.84;236140;1193;25033;-72
2021/10/05 20:50:17;;;;;;;10.00;6.10;;;;;;;17.03;50.52;98373.52;235649;1193;24145;-70
2021/10/05 20:55:20;;;;;;;7.00;5.60;;;;;;;16.98;50.61;98368.85;235588;1200;22529;-72
2021/10/05 21:00:22;;;;;;;7.90;6.40;;;;;;;16.92;50.82;98369.02;235773;1199;24051;-72
2021/10/05 21:05:30;;;;;;;9.10;6.20;;;;;;;16.86;50.86;98372.88;235688;1199;22440;-72
2021/10/05 21:10:34;;;;;;;7.00;5.50;;;;;;;16.78;51.11;98378.59;235911;1198;24078;-71
2021/10/05 21:15:38;;;;;;;7.50;5.40;;;;;;;16.72;51.28;98379.27;235574;1199;22862;-71
2021/10/05 21:20:42;;;;;;;9.90;5.90;;;;;;;16.71;51.24;98378.70;235781;1199;24046;-72
2021/10/05 21:25:44;;;;;;;8.40;4.20;;;;;;;16.72;51.30;98386.35;235565;1196;25244;-70
2021/10/05 21:30:48;;;;;;;7.00;4.50;;;;;;;16.76;51.25;98389.75;235719;1186;22470;-70
2021/10/05 21:35:51;;;;;;;7.00;4.40;;;;;;;16.76;51.17;98395.77;235580;1199;25329;-72
2021/10/05 21:40:54;;;;;;;5.40;4.10;;;;;;;16.76;51.09;98397.00;235870;1199;26280;-70
2021/10/05 21:45:56;;;;;;;5.40;3.70;;;;;;;16.82;50.98;98393.07;235658;1192;24679;-71
2021/10/05 21:50:59;;;;;;;3.80;3.50;;;;;;;16.91;50.89;98390.08;235240;1200;24012;-70
2021/10/05 21:56:02;;;;;;;4.90;4.00;;;;;;;17.03;50.53;98402.57;235240;1200;23991;-72
2021/10/05 22:01:05;;;;;;;5.30;4.20;;;;;;;17.13;50.38;98401.86;235178;1200;24066;-72
2021/10/05 22:06:08;;;;;;;5.10;4.10;;;;;;;17.19;50.27;98397.48;235293;1200;24040;-71
2021/10/05 22:11:11;;;;;;;4.90;3.50;;;;;;;17.23;50.17;98405.04;235443;1200;23269;-73
2021/10/05 22:16:14;;;;;;;7.00;3.70;;;;;;;17.30;50.15;98409.48;234920;1185;22463;-71
2021/10/05 22:21:19;;;;;;;4.20;3.60;;;;;;;17.39;49.94;98417.46;235692;1200;22436;-71
2021/10/05 22:26:27;;;;;;;4.90;3.50;;;;;;;17.46;49.86;98420.39;235396;1199;23643;-70
2021/10/05 22:31:29;;;;;;;4.90;3.50;;;;;;;17.53;49.76;98425.61;235574;1193;22449;-71
2021/10/05 22:36:44;;;;;;;6.60;4.00;;;;;;;17.62;49.70;98430.20;235735;1199;22420;-72
2021/10/05 22:41:47;;;;;;;4.90;3.50;;;;;;;17.65;49.53;98441.59;235857;1199;24078;-70
2021/10/05 22:46:50;;;;;;;7.70;4.10;;;;;;;17.66;49.56;98435.64;235348;1193;22451;-72
2021/10/05 22:51:53;;;;;;;8.60;4.20;;;;;;;17.64;49.48;98439.08;235016;1201;24049;-71
2021/10/05 22:56:55;;;;;;;4.70;3.50;;;;;;;17.59;49.46;98436.86;234858;1177;22545;-71
2021/10/05 23:01:58;;;;;;;6.70;3.80;;;;;;;17.57;49.53;98447.08;235445;1200;24282;-72
2021/10/05 23:07:00;;;;;;;4.80;3.60;;;;;;;17.55;49.67;98447.04;235634;1200;24065;-72
2021/10/05 23:12:03;;;;;;;4.90;3.20;;;;;;;17.54;49.58;98441.10;235178;1200;24042;-72
2021/10/05 23:17:07;;;;;;;10.40;3.80;;;;;;;17.52;49.60;98439.59;235343;1199;24063;-71
2021/10/05 23:22:09;;;;;;;5.90;4.20;;;;;;;17.48;49.64;98445.97;235147;1200;22466;-72
2021/10/05 23:27:12;;;;;;;7.50;4.40;;;;;;;17.45;49.92;98451.69;235244;1199;24075;-70